Time;durP1;ratioP1;P1;durP2;ratioP2;P2;SDS_P1;SDS_P2;PMS_P1;PMS_P2;Temp;Humidity;BMP_temperature;BMP_pressure;BME280_temperature;BME280_humidity;BME280_pressure;Samples;Min_cycle;Max_cycle;Signal;HPM_P1;HPM_P2
2021/10/11 01:04:32;;;;;;;23.27;18.40;;;;;;;;;;4220181;26;20060;-83
2021/10/11 01:07:32;;;;;;;22.65;17.80;;;;;;;;;;4945211;29;20047;-84
2021/10/11 01:10:29;;;;;;;21.33;18.10;;;;;;;;;;4968442;29;20050;-84
2021/10/11 01:13:38;;;;;;;20.60;17.13;;;;;;;;;;4966188;28;20062;-84
2021/10/11 01:16:09;;;;;;;;;;;;;;;;;;4939165;28;20043;-84
2021/10/11 01:19:22;;;;;;;20.00;17.08;;;;;;;;;;4971609;28;19918;-84
2021/10/11 01:22:39;;;;;;;23.15;17.33;;;;;;;;;;4978441;28;20039;-84
2021/10/11 01:29:24;;;;;;;21.55;17.67;;;;;;;;;;4978389;28;20033;-84
2021/10/11 01:32:12;;;;;;;19.30;17.20;;;;;;;;;;4915811;29;20076;-83
2021/10/11 01:38:46;;;;;;;22.17;17.27;;;;;;;;;;4890969;29;20082;-83
2021/10/11 01:41:39;;;;;;;21.65;17.50;;;;;;;;;;4860768;29;20078;-84
2021/10/11 01:44:44;;;;;;;19.77;16.30;;;;;;;;;;4851268;29;20042;-84
2021/10/11 01:47:27;;;;;;;21.13;16.27;;;;;;;;;;4839939;29;20042;-84
2021/10/11 01:50:18;;;;;;;18.98;15.50;;;;;;;;;;4846885;29;20103;-83
2021/10/11 01:53:32;;;;;;;;;;;;;;;;;;4844469;29;20038;-84
2021/10/11 01:56:52;;;;;;;20.70;17.05;;;;;;;;;;4845366;29;19920;-84
2021/10/11 01:59:54;;;;;;;19.75;15.95;;;;;;;;;;4821721;29;20042;-84
2021/10/11 02:09:25;;;;;;;20.02;15.80;;;;;;;;;;4874149;29;20106;-84
2021/10/11 02:12:38;;;;;;;19.13;16.23;;;;;;;;;;4911300;29;20035;-84
2021/10/11 02:18:41;;;;;;;19.38;16.27;;;;;;;;;;4939969;29;20043;-84
2021/10/11 02:21:52;;;;;;;17.90;16.00;;;;;;;;;;4931473;29;20040;-84
2021/10/11 02:25:18;;;;;;;19.90;15.90;;;;;;;;;;4856310;29;20061;-84
2021/10/11 02:28:31;;;;;;;19.17;16.33;;;;;;;;;;4829446;29;20046;-84
2021/10/11 02:31:28;;;;;;;23.27;16.45;;;;;;;;;;4829368;29;20102;-83
2021/10/11 02:37:17;;;;;;;18.95;15.90;;;;;;;;;;4827454;29;20068;-83
2021/10/11 02:40:03;;;;;;;16.98;15.27;;;;;;;;;;4811928;29;20043;-83
2021/10/11 02:42:55;;;;;;;20.83;15.40;;;;;;;;;;4797152;29;20053;-83
2021/10/11 02:45:47;;;;;;;17.25;14.93;;;;;;;;;;4783126;29;20057;-83
2021/10/11 02:49:10;;;;;;;19.27;14.90;;;;;;;;;;4806967;30;20058;-83
2021/10/11 02:52:33;;;;;;;18.50;14.93;;;;;;;;;;4808256;29;20047;-84
2021/10/11 02:55:31;;;;;;;19.05;16.05;;;;;;;;;;4809327;29;20046;-84
2021/10/11 02:58:33;;;;;;;18.48;15.95;;;;;;;;;;4795685;30;20106;-84
2021/10/11 03:02:03;;;;;;;20.20;14.57;;;;;;;;;;4806232;29;20031;-83
2021/10/11 03:04:35;;;;;;;21.73;16.83;;;;;;;;;;4840431;29;20109;-84
2021/10/11 03:14:23;;;;;;;19.88;16.67;;;;;;;;;;4882675;29;20111;-84
2021/10/11 03:17:42;;;;;;;19.65;16.65;;;;;;;;;;4869091;29;20045;-84
2021/10/11 03:21:07;;;;;;;18.60;16.63;;;;;;;;;;4884673;29;20021;-84
2021/10/11 03:32:23;;;;;;;19.27;16.60;;;;;;;;;;4148314;26;20059;-84
2021/10/11 03:35:15;;;;;;;20.65;16.77;;;;;;;;;;4962132;29;20027;-83
2021/10/11 03:37:41;;;;;;;21.25;16.85;;;;;;;;;;4956135;29;20087;-83
2021/10/11 03:40:55;;;;;;;19.48;15.75;;;;;;;;;;4956120;29;20039;-83
2021/10/11 03:44:15;;;;;;;20.73;16.50;;;;;;;;;;4902921;29;20075;-83
2021/10/11 03:50:55;;;;;;;17.02;15.23;;;;;;;;;;4882166;29;20118;-84
2021/10/11 03:54:26;;;;;;;20.02;16.33;;;;;;;;;;4881036;29;20049;-84
2021/10/11 03:57:23;;;;;;;19.55;16.40;;;;;;;;;;4879869;29;20056;-84
2021/10/11 04:00:14;;;;;;;19.23;16.50;;;;;;;;;;4842962;29;20044;-83
2021/10/11 04:02:50;;;;;;;18.52;16.52;;;;;;;;;;4874994;29;20038;-82
2021/10/11 04:05:16;;;;;;;17.92;15.68;;;;;;;;;;4862978;29;20592;-84
2021/10/11 04:07:50;;;;;;;17.67;15.77;;;;;;;;;;4877081;29;20099;-83
2021/10/11 04:11:05;;;;;;;19.52;17.52;;;;;;;;;;4886803;29;20037;-83
2021/10/11 04:13:47;;;;;;;20.13;16.67;;;;;;;;;;4892102;29;20100;-83
2021/10/11 04:16:17;;;;;;;19.92;16.73;;;;;;;;;;4883793;29;20080;-82
2021/10/11 04:18:45;;;;;;;21.83;16.48;;;;;;;;;;4875901;29;20040;-83
2021/10/11 04:21:19;;;;;;;22.15;16.65;;;;;;;;;;4885791;29;20051;-83
2021/10/11 04:24:08;;;;;;;20.30;17.15;;;;;;;;;;4863827;29;20033;-83
2021/10/11 04:26:52;;;;;;;21.02;16.27;;;;;;;;;;4865919;29;20196;-84
2021/10/11 04:29:27;;;;;;;18.95;16.95;;;;;;;;;;4847111;29;20040;-83
2021/10/11 04:32:09;;;;;;;22.60;16.95;;;;;;;;;;4897996;29;20133;-83
2021/10/11 04:34:36;;;;;;;18.92;16.77;;;;;;;;;;4936540;29;20048;-83
2021/10/11 04:37:06;;;;;;;20.25;17.75;;;;;;;;;;4954817;28;20012;-83
2021/10/11 04:39:38;;;;;;;20.17;16.95;;;;;;;;;;4953250;29;20031;-83
2021/10/11 04:42:35;;;;;;;22.67;17.50;;;;;;;;;;4947544;29;20066;-82
2021/10/11 04:45:13;;;;;;;18.35;16.35;;;;;;;;;;4971561;28;20039;-83
2021/10/11 04:47:48;;;;;;;20.63;17.50;;;;;;;;;;4969081;28;20039;-82
2021/10/11 04:50:20;;;;;;;19.70;17.40;;;;;;;;;;4955373;29;20059;-84
2021/10/11 04:52:50;;;;;;;20.50;16.88;;;;;;;;;;4973318;28;20042;-83
2021/10/11 04:55:37;;;;;;;18.90;16.67;;;;;;;;;;4949003;28;20034;-83
2021/10/11 04:58:04;;;;;;;21.25;16.77;;;;;;;;;;4970779;29;20031;-83
2021/10/11 05:00:41;;;;;;;20.35;17.33;;;;;;;;;;4942009;29;20055;-83
2021/10/11 05:03:35;;;;;;;19.50;17.40;;;;;;;;;;4935779;29;20057;-83
2021/10/11 05:06:23;;;;;;;20.73;16.77;;;;;;;;;;4954577;29;20116;-84
2021/10/11 05:09:29;;;;;;;20.63;15.32;;;;;;;;;;4936854;29;20099;-83
2021/10/11 05:11:59;;;;;;;18.90;14.70;;;;;;;;;;4952978;29;20504;-83
2021/10/11 12:58:42;;;;;;;12.50;10.25;;;;;;;;;;5050492;23;20457;-91
2021/10/11 13:01:08;;;;;;;13.27;9.73;;;;;;;;;;4919633;29;20039;-94
2021/10/11 13:03:33;;;;;;;17.27;9.90;;;;;;;;;;4919106;29;20038;-95
2021/10/11 13:05:59;;;;;;;15.85;10.35;;;;;;;;;;4919562;29;20023;-95
2021/10/11 13:08:24;;;;;;;15.32;10.13;;;;;;;;;;4919386;29;20039;-94
2021/10/11 13:10:49;;;;;;;14.48;9.60;;;;;;;;;;4919408;29;20035;-94
2021/10/11 13:13:15;;;;;;;15.10;9.77;;;;;;;;;;4918952;29;20028;-94
2021/10/11 13:15:40;;;;;;;12.23;9.30;;;;;;;;;;4918592;29;20608;-93
2021/10/11 13:18:07;;;;;;;15.00;9.90;;;;;;;;;;4919196;29;20031;-95
2021/10/11 13:20:34;;;;;;;9.60;8.60;;;;;;;;;;4919196;29;20058;-94
2021/10/11 13:22:59;;;;;;;14.25;9.23;;;;;;;;;;4918764;29;20032;-94
2021/10/11 13:25:25;;;;;;;13.10;9.48;;;;;;;;;;4918971;29;20036;-94
2021/10/11 13:27:50;;;;;;;15.05;9.40;;;;;;;;;;4935694;29;20036;-92
2021/10/11 13:42:16;;;;;;;11.75;8.82;;;;;;;;;;4881317;29;20449;-91
2021/10/11 14:27:45;;;;;;;13.23;8.88;;;;;;;;;;4919781;29;20064;-92
2021/10/11 14:30:22;;;;;;;13.05;9.60;;;;;;;;;;4918293;29;20031;-93
